АЭРОДРОМУУД

ICAO:
ZMUB
Нэр:
УЛААНБААТАР / БУЯНТ-УХАА
Ахц:
475033N 1064603E
200823 ZMUBYNYX
(A0019/22 NOTAMR A0018/22
Q) ZMUB/QFAXX/IV/NBO/A /000/999/4750N10646E005
A) ZMUB B) 2201200823 C) 2202041100
E) ZMUB AD OPERATION HOUR 00:00-09:00 AND NON-SCHEDULED DOMESTIC FLIGHT REQUEST SHALL BE SUBMITTED NOT LATER THAN 3 HOURS BEFORE THE BEGINNING OF FLIGHT OPERATION TO THE FOLLOWING ADDRESSES: -AIRPORT(UNDERSCORE)OPERATION(A)MCAA.GOV.MN TEL: (976)71283047 -TPU(A)MCAA.GOV.MN TEL: (976)71281602 -FPD(A)MCAA.GOV.MN TEL: (976)71283106)
- 8 hours ago -
041329 ZMUBYNYX
(A0011/22 NOTAMN
Q) ZMUB/QFAXX/IV/NBO/A /000/999/4750N10646E005
A) ZMUB B) 2201041329 C) 2202041100
E) ZMUB AD AVBL FOR FOLLOWING FLIGHTS: -GENERAL -TRAINING -CHARTER -VIP -STATE -EMERGENCY -MAINTENANCE FERRY -AS ALTN FOR INTL AND DOM. FOR INTL FLIGHT ZMUB AIRPORT NOT AVBL PASSENGER TERMINAL SERVICE. CUSTOMS, IMMIGRATION AND SECURITY SERVICE ON REQUEST.)
- 2 weeks ago -
030738 ZMUBYNYX
(A0006/22 NOTAMN
Q) ZMUB/QFAXX/IV/NBO/A /000/999/4750N10646E005
A) ZMUB B) 2201030738 C) PERM
E) QUALIFYING AD CERTIFIED. VALIDITY OF CERTIFICATION 31 DEC 2022 REF AIP MONGOLIA 1.5)
- 2 weeks ago -
010416 ZMUBYNYX
(C0001/22 NOTAMR C0368/21
Q) ZMUB/QKKKK/K /K /K /000/999/4752N10350E999
A) ZMUB B) 2201010416 C) 2202010700 EST
E) CHECKLIST YEAR=2021 0364 0365 0367 0376 0377 0378 0381 0382 0383 0384 0387 0388 LATEST PUBLICATIONS: AIP AMDT: 08/21 PUB 16 DEC 2021 AIRAC AIP AMDT: 01/22 WEF 27 JAN 2022 AIP DATA SET: AIPZM-AMDT12-21 PUB 16 DEC 2021 AD MAPPING DATA SET : AMDBZMCK200618 WEF 18 JUN 2020 AMDBZMUB200618 WEF 18 JUN 2020 AMDBZMDZ200618 WEF 18 JUN 2020 IFP DATA SET : IFPZM21 WEF 04 JAN 2021 OBST DATA SET: O-AREA1ZM200618 WEF 18 JUN 2020 O-AREA2ZMCK200618 WEF 18 JUN 2020 O-AREA2ZMUB200730 WEF 10 SEP 2020 O-AREA3ZMCK200618 WEF 18 JUN 2020 O-AREA3ZMUB200618 WEF 18 JUN 2020. TERRAIN DATA SET: T-AREA1ZM200618 WEF 18 JUN 2020 T-AREA2ZMCK200618 WEF 18 JUN 2020 T-AREA2ZMUB200618 WEF 18 JUN 2020 T-AREA3ZMCK200618 WEF 18 JUN 2020 T-AREA3ZMUB200618 WEF 18 JUN 2020. CHECKLIST AIP SUP: AIP SUP: 01/20, 02/21, 03/21 CHECKLIST AIC: SERIES C: 02/20, 02/21)
- 3 weeks ago -
010412 ZMUBYNYX
(A0001/22 NOTAMR A0987/21
Q) ZMUB/QKKKK/K /K /K /000/999/4752N10350E999
A) ZMUB B) 2201010412 C) 2202010700 EST
E) CHECKLIST YEAR=2021 0980 0981 0982 0997 1008 1013 LATEST PUBLICATIONS: AIP AMDT: 08/21 PUB 16 DEC 2021 AIRAC AIP AMDT: 01/22 WEF 27 JAN 2022 AIP DATA SET: AIPZM-AMDT12-21 PUB 16 DEC 2021 AD MAPPING DATA SET : AMDBZMCK200618 WEF 18 JUN 2020 AMDBZMUB200618 WEF 18 JUN 2020 AMDBZMDZ200618 WEF 18 JUN 2020 IFP DATA SET : IFPZM21 WEF 04 JAN 2021 OBST DATA SET: O-AREA1ZM200618 WEF 18 JUN 2020 O-AREA2ZMCK200618 WEF 18 JUN 2020 O-AREA2ZMUB200730 WEF 10 SEP 2020 O-AREA3ZMCK200618 WEF 18 JUN 2020 O-AREA3ZMUB200618 WEF 18 JUN 2020. TERRAIN DATA SET: T-AREA1ZM200618 WEF 18 JUN 2020 T-AREA2ZMCK200618 WEF 18 JUN 2020 T-AREA2ZMUB200618 WEF 18 JUN 2020 T-AREA3ZMCK200618 WEF 18 JUN 2020 T-AREA3ZMUB200618 WEF 18 JUN 2020. CHECKLIST AIP SUP: AIP SUP: 01/20, 02/21, 03/21 CHECKLIST AIC: SERIES A: 04/17, 03/20, 06/20, 01/21, 03/21)
- 3 weeks ago -
METAR
No records found.
TAF
TAF ZMUB 192232Z 2000/2106 VRB02MPS 6000 SCT100 TXM10/2007Z TNM25/2023Z=
- 18 hours ago -
TAF ZMUB 191630Z 1918/2024 VRB02MPS 6000 SCT100 TNM25/1923Z TXM11/2007Z=
- 24 hours ago -
TAF ZMUB 191035Z 1912/2018 VRB02MPS 6000 SCT100 TNM25/1923Z TXM11/2007Z=
- 1 day ago -
TAF ZMUB 080819Z 080 CHECK TEXT NEW ENDING ADDED ZMUBYFYZ
- 2 weeks ago -